sensor_id;sensor_type;location;lat;lon;timestamp;pressure;altitude;pressure_sealevel;temperature;humidity
59545;BME280;45368;55.002;-1.592;2022-07-29T00:01:57;101233.44;;;17.37;50.88
59545;BME280;45368;55.002;-1.592;2022-07-29T00:04:24;101224.42;;;18.13;49.05
59545;BME280;45368;55.002;-1.592;2022-07-29T00:06:51;101231.77;;;17.42;50.35
59545;BME280;45368;55.002;-1.592;2022-07-29T00:09:18;101229.57;;;17.57;50.07
59545;BME280;45368;55.002;-1.592;2022-07-29T00:11:46;101227.23;;;18.02;49.10
59545;BME280;45368;55.002;-1.592;2022-07-29T00:14:14;101219.68;;;18.64;48.12
59545;BME280;45368;55.002;-1.592;2022-07-29T00:16:41;101222.59;;;18.88;46.95
59545;BME280;45368;55.002;-1.592;2022-07-29T00:19:07;101224.48;;;17.83;48.83
59545;BME280;45368;55.002;-1.592;2022-07-29T00:21:34;101221.49;;;19.05;47.56
59545;BME280;45368;55.002;-1.592;2022-07-29T00:24:02;101223.36;;;18.35;47.88
59545;BME280;45368;55.002;-1.592;2022-07-29T00:26:29;101225.28;;;18.17;48.89
59545;BME280;45368;55.002;-1.592;2022-07-29T00:28:57;101227.15;;;18.15;48.29
59545;BME280;45368;55.002;-1.592;2022-07-29T00:31:24;101232.15;;;17.37;49.27
59545;BME280;45368;55.002;-1.592;2022-07-29T00:33:51;101231.46;;;17.19;49.91
59545;BME280;45368;55.002;-1.592;2022-07-29T00:36:18;101225.70;;;18.09;47.95
59545;BME280;45368;55.002;-1.592;2022-07-29T00:38:44;101223.91;;;18.23;47.26
59545;BME280;45368;55.002;-1.592;2022-07-29T00:41:12;101227.42;;;18.09;47.96
59545;BME280;45368;55.002;-1.592;2022-07-29T00:43:40;101226.18;;;18.08;47.70
59545;BME280;45368;55.002;-1.592;2022-07-29T00:46:08;101226.47;;;17.42;47.22
59545;BME280;45368;55.002;-1.592;2022-07-29T00:48:35;101231.03;;;17.59;47.52
59545;BME280;45368;55.002;-1.592;2022-07-29T00:51:04;101220.27;;;18.77;46.41
59545;BME280;45368;55.002;-1.592;2022-07-29T00:53:32;101224.46;;;18.04;45.65
59545;BME280;45368;55.002;-1.592;2022-07-29T00:56:01;101226.17;;;17.52;47.74
59545;BME280;45368;55.002;-1.592;2022-07-29T00:58:28;101219.76;;;18.91;45.93
59545;BME280;45368;55.002;-1.592;2022-07-29T01:00:56;101215.87;;;19.16;45.29
59545;BME280;45368;55.002;-1.592;2022-07-29T01:03:25;101217.67;;;19.02;44.98
59545;BME280;45368;55.002;-1.592;2022-07-29T01:05:52;101217.08;;;17.93;45.42
59545;BME280;45368;55.002;-1.592;2022-07-29T01:08:21;101209.30;;;18.49;46.03
59545;BME280;45368;55.002;-1.592;2022-07-29T01:10:51;101209.53;;;18.96;45.27
59545;BME280;45368;55.002;-1.592;2022-07-29T01:13:19;101207.59;;;19.42;44.81
59545;BME280;45368;55.002;-1.592;2022-07-29T01:15:51;101218.40;;;17.85;45.34
59545;BME280;45368;55.002;-1.592;2022-07-29T01:18:28;101216.15;;;18.85;44.95
59545;BME280;45368;55.002;-1.592;2022-07-29T01:21:15;101214.13;;;18.98;44.76
59545;BME280;45368;55.002;-1.592;2022-07-29T01:24:09;101216.56;;;18.08;44.14
59545;BME280;45368;55.002;-1.592;2022-07-29T01:26:45;101216.98;;;17.59;45.30
59545;BME280;45368;55.002;-1.592;2022-07-29T01:29:18;101216.47;;;17.57;44.72
59545;BME280;45368;55.002;-1.592;2022-07-29T01:31:54;101216.40;;;17.26;45.78
59545;BME280;45368;55.002;-1.592;2022-07-29T01:34:25;101214.03;;;16.85;46.89
59545;BME280;45368;55.002;-1.592;2022-07-29T01:37:00;101214.41;;;16.79;46.69
59545;BME280;45368;55.002;-1.592;2022-07-29T01:39:32;101211.13;;;17.12;46.41
59545;BME280;45368;55.002;-1.592;2022-07-29T01:42:17;101212.41;;;17.10;46.09
59545;BME280;45368;55.002;-1.592;2022-07-29T01:44:54;101208.86;;;17.27;46.01
59545;BME280;45368;55.002;-1.592;2022-07-29T01:47:34;101211.83;;;16.26;47.40
59545;BME280;45368;55.002;-1.592;2022-07-29T01:50:07;101206.39;;;17.72;44.96
59545;BME280;45368;55.002;-1.592;2022-07-29T01:52:42;101203.62;;;17.97;44.73
59545;BME280;45368;55.002;-1.592;2022-07-29T01:55:13;101205.92;;;17.79;45.51
59545;BME280;45368;55.002;-1.592;2022-07-29T01:57:44;101207.25;;;17.61;44.55
59545;BME280;45368;55.002;-1.592;2022-07-29T02:00:13;101208.18;;;17.04;46.15
59545;BME280;45368;55.002;-1.592;2022-07-29T02:02:43;101205.03;;;17.33;45.52
59545;BME280;45368;55.002;-1.592;2022-07-29T02:05:14;101203.78;;;17.55;45.41
59545;BME280;45368;55.002;-1.592;2022-07-29T02:07:43;101203.69;;;17.06;45.81
59545;BME280;45368;55.002;-1.592;2022-07-29T02:10:12;101202.27;;;17.11;46.14
59545;BME280;45368;55.002;-1.592;2022-07-29T02:12:40;101200.12;;;17.08;46.28
59545;BME280;45368;55.002;-1.592;2022-07-29T02:15:11;101203.34;;;16.72;47.34
59545;BME280;45368;55.002;-1.592;2022-07-29T02:17:42;101201.30;;;17.35;46.39
59545;BME280;45368;55.002;-1.592;2022-07-29T02:20:11;101199.95;;;16.78;46.98
59545;BME280;45368;55.002;-1.592;2022-07-29T02:22:40;101198.29;;;17.55;45.80
59545;BME280;45368;55.002;-1.592;2022-07-29T02:25:09;101197.21;;;16.74;47.17
59545;BME280;45368;55.002;-1.592;2022-07-29T02:27:38;101199.18;;;17.07;46.88
59545;BME280;45368;55.002;-1.592;2022-07-29T02:30:08;101198.75;;;17.24;46.53
59545;BME280;45368;55.002;-1.592;2022-07-29T02:32:36;101200.95;;;17.52;46.13
59545;BME280;45368;55.002;-1.592;2022-07-29T02:35:05;101200.55;;;17.19;46.84
59545;BME280;45368;55.002;-1.592;2022-07-29T02:37:34;101199.29;;;17.40;46.60
59545;BME280;45368;55.002;-1.592;2022-07-29T02:40:04;101197.52;;;17.13;46.84
59545;BME280;45368;55.002;-1.592;2022-07-29T02:42:33;101191.97;;;17.89;45.35
59545;BME280;45368;55.002;-1.592;2022-07-29T02:45:04;101193.97;;;18.11;45.11
59545;BME280;45368;55.002;-1.592;2022-07-29T02:47:36;101192.28;;;18.65;44.39
59545;BME280;45368;55.002;-1.592;2022-07-29T02:50:11;101195.50;;;17.10;46.36
59545;BME280;45368;55.002;-1.592;2022-07-29T02:52:43;101191.37;;;18.10;44.82
59545;BME280;45368;55.002;-1.592;2022-07-29T02:55:17;101192.43;;;17.82;45.16
59545;BME280;45368;55.002;-1.592;2022-07-29T02:57:49;101196.54;;;16.94;46.84
59545;BME280;45368;55.002;-1.592;2022-07-29T03:00:18;101191.94;;;17.86;45.70
59545;BME280;45368;55.002;-1.592;2022-07-29T03:02:50;101195.40;;;17.29;46.07
59545;BME280;45368;55.002;-1.592;2022-07-29T03:05:20;101193.03;;;18.00;45.16
59545;BME280;45368;55.002;-1.592;2022-07-29T03:07:52;101191.58;;;17.81;45.82
59545;BME280;45368;55.002;-1.592;2022-07-29T03:10:21;101188.46;;;17.80;45.87
59545;BME280;45368;55.002;-1.592;2022-07-29T03:12:49;101187.47;;;18.02;45.08
59545;BME280;45368;55.002;-1.592;2022-07-29T03:15:17;101189.01;;;17.80;45.44
59545;BME280;45368;55.002;-1.592;2022-07-29T03:17:46;101189.20;;;17.73;45.84
59545;BME280;45368;55.002;-1.592;2022-07-29T03:20:14;101191.27;;;17.32;47.18
59545;BME280;45368;55.002;-1.592;2022-07-29T03:22:44;101193.23;;;17.05;47.68
59545;BME280;45368;55.002;-1.592;2022-07-29T03:25:13;101192.27;;;17.19;47.44
59545;BME280;45368;55.002;-1.592;2022-07-29T03:27:40;101189.98;;;16.87;47.80
59545;BME280;45368;55.002;-1.592;2022-07-29T03:30:09;101189.54;;;17.36;47.55
59545;BME280;45368;55.002;-1.592;2022-07-29T03:32:37;101187.11;;;16.86;48.63
59545;BME280;45368;55.002;-1.592;2022-07-29T03:35:05;101191.90;;;16.32;49.39
59545;BME280;45368;55.002;-1.592;2022-07-29T03:37:33;101194.60;;;16.75;49.03
59545;BME280;45368;55.002;-1.592;2022-07-29T03:40:02;101194.03;;;17.13;48.70
59545;BME280;45368;55.002;-1.592;2022-07-29T03:42:33;101198.22;;;15.83;52.00
59545;BME280;45368;55.002;-1.592;2022-07-29T03:45:07;101192.11;;;16.93;48.99
59545;BME280;45368;55.002;-1.592;2022-07-29T03:47:36;101193.98;;;17.24;48.54
59545;BME280;45368;55.002;-1.592;2022-07-29T03:50:08;101194.69;;;17.09;49.02
59545;BME280;45368;55.002;-1.592;2022-07-29T03:52:35;101194.87;;;17.49;48.35
59545;BME280;45368;55.002;-1.592;2022-07-29T03:55:04;101192.61;;;17.05;48.86
59545;BME280;45368;55.002;-1.592;2022-07-29T03:57:32;101194.66;;;17.33;48.68
59545;BME280;45368;55.002;-1.592;2022-07-29T04:00:02;101195.19;;;17.26;48.91
59545;BME280;45368;55.002;-1.592;2022-07-29T04:02:31;101196.93;;;17.10;48.74
59545;BME280;45368;55.002;-1.592;2022-07-29T04:04:59;101195.39;;;17.60;47.77
59545;BME280;45368;55.002;-1.592;2022-07-29T04:07:25;101205.35;;;16.68;49.99
59545;BME280;45368;55.002;-1.592;2022-07-29T04:09:52;101202.18;;;17.34;48.98
59545;BME280;45368;55.002;-1.592;2022-07-29T04:12:19;101200.58;;;16.85;49.91
59545;BME280;45368;55.002;-1.592;2022-07-29T04:14:46;101204.70;;;16.47;51.07
59545;BME280;45368;55.002;-1.592;2022-07-29T04:17:13;101205.91;;;16.75;50.39
59545;BME280;45368;55.002;-1.592;2022-07-29T04:19:40;101203.36;;;17.39;48.93
59545;BME280;45368;55.002;-1.592;2022-07-29T04:22:07;101205.61;;;17.26;49.20
59545;BME280;45368;55.002;-1.592;2022-07-29T04:24:34;101202.63;;;17.24;49.71
59545;BME280;45368;55.002;-1.592;2022-07-29T04:27:02;101205.61;;;17.31;49.46
59545;BME280;45368;55.002;-1.592;2022-07-29T04:29:29;101208.11;;;16.75;50.72
59545;BME280;45368;55.002;-1.592;2022-07-29T04:31:55;101214.63;;;16.91;50.63
59545;BME280;45368;55.002;-1.592;2022-07-29T04:34:22;101215.31;;;16.20;51.91
59545;BME280;45368;55.002;-1.592;2022-07-29T04:36:50;101212.97;;;15.86;53.88
59545;BME280;45368;55.002;-1.592;2022-07-29T04:39:17;101215.28;;;15.63;54.52
59545;BME280;45368;55.002;-1.592;2022-07-29T04:41:44;101214.23;;;15.57;55.30
59545;BME280;45368;55.002;-1.592;2022-07-29T04:44:11;101213.46;;;15.22;56.54
59545;BME280;45368;55.002;-1.592;2022-07-29T04:46:38;101210.87;;;15.62;56.05
59545;BME280;45368;55.002;-1.592;2022-07-29T04:49:06;101216.92;;;14.68;58.24
59545;BME280;45368;55.002;-1.592;2022-07-29T04:51:32;101214.67;;;15.21;57.64
59545;BME280;45368;55.002;-1.592;2022-07-29T04:53:59;101214.54;;;15.24;57.56
59545;BME280;45368;55.002;-1.592;2022-07-29T04:56:26;101214.85;;;14.82;57.78
59545;BME280;45368;55.002;-1.592;2022-07-29T04:58:54;101215.35;;;15.38;56.92
59545;BME280;45368;55.002;-1.592;2022-07-29T05:01:21;101219.73;;;14.88;58.11
59545;BME280;45368;55.002;-1.592;2022-07-29T05:03:48;101222.06;;;14.15;60.69
59545;BME280;45368;55.002;-1.592;2022-07-29T05:06:16;101218.35;;;14.95;59.28
59545;BME280;45368;55.002;-1.592;2022-07-29T05:08:43;101221.42;;;14.60;60.67
59545;BME280;45368;55.002;-1.592;2022-07-29T05:11:10;101224.15;;;14.33;60.87
59545;BME280;45368;55.002;-1.592;2022-07-29T05:13:37;101219.44;;;15.14;59.22
59545;BME280;45368;55.002;-1.592;2022-07-29T05:16:04;101221.00;;;14.63;60.46
59545;BME280;45368;55.002;-1.592;2022-07-29T05:18:32;101219.52;;;14.78;60.40
59545;BME280;45368;55.002;-1.592;2022-07-29T05:20:58;101219.38;;;14.14;62.51
59545;BME280;45368;55.002;-1.592;2022-07-29T05:23:25;101216.96;;;15.15;60.06
59545;BME280;45368;55.002;-1.592;2022-07-29T05:25:53;101216.27;;;15.32;59.82
59545;BME280;45368;55.002;-1.592;2022-07-29T05:28:19;101212.02;;;16.02;57.73
59545;BME280;45368;55.002;-1.592;2022-07-29T05:30:46;101211.09;;;15.77;58.16
59545;BME280;45368;55.002;-1.592;2022-07-29T05:33:14;101211.52;;;14.75;60.86
59545;BME280;45368;55.002;-1.592;2022-07-29T05:35:41;101214.57;;;15.30;59.85
59545;BME280;45368;55.002;-1.592;2022-07-29T05:38:08;101221.19;;;15.14;60.05
59545;BME280;45368;55.002;-1.592;2022-07-29T05:40:34;101218.52;;;15.30;59.75
59545;BME280;45368;55.002;-1.592;2022-07-29T05:43:01;101222.43;;;14.73;61.12
59545;BME280;45368;55.002;-1.592;2022-07-29T05:45:29;101223.52;;;15.17;60.39
59545;BME280;45368;55.002;-1.592;2022-07-29T05:47:55;101227.24;;;15.78;59.88
59545;BME280;45368;55.002;-1.592;2022-07-29T05:50:23;101224.82;;;15.82;59.57
59545;BME280;45368;55.002;-1.592;2022-07-29T05:52:50;101228.62;;;15.41;60.60
59545;BME280;45368;55.002;-1.592;2022-07-29T05:55:17;101228.02;;;15.67;60.54
59545;BME280;45368;55.002;-1.592;2022-07-29T05:57:45;101226.67;;;15.05;61.88
59545;BME280;45368;55.002;-1.592;2022-07-29T06:00:12;101226.95;;;14.54;62.88
59545;BME280;45368;55.002;-1.592;2022-07-29T06:02:39;101226.08;;;14.26;63.71
59545;BME280;45368;55.002;-1.592;2022-07-29T06:05:07;101225.68;;;14.38;63.40
59545;BME280;45368;55.002;-1.592;2022-07-29T06:07:35;101233.30;;;14.30;64.97
59545;BME280;45368;55.002;-1.592;2022-07-29T06:10:02;101229.56;;;13.96;66.43
59545;BME280;45368;55.002;-1.592;2022-07-29T06:12:29;101232.07;;;13.70;66.83
59545;BME280;45368;55.002;-1.592;2022-07-29T06:14:57;101232.97;;;14.04;66.34
59545;BME280;45368;55.002;-1.592;2022-07-29T06:17:23;101234.57;;;14.07;66.19
59545;BME280;45368;55.002;-1.592;2022-07-29T06:19:50;101234.21;;;14.19;65.64
59545;BME280;45368;55.002;-1.592;2022-07-29T06:22:18;101236.79;;;13.67;67.19
59545;BME280;45368;55.002;-1.592;2022-07-29T06:24:45;101231.34;;;13.72;67.23
59545;BME280;45368;55.002;-1.592;2022-07-29T06:27:13;101234.37;;;13.91;66.29
59545;BME280;45368;55.002;-1.592;2022-07-29T06:29:39;101235.29;;;13.17;67.55
59545;BME280;45368;55.002;-1.592;2022-07-29T06:32:07;101236.64;;;13.40;67.65
59545;BME280;45368;55.002;-1.592;2022-07-29T06:34:34;101236.30;;;13.98;67.16
59545;BME280;45368;55.002;-1.592;2022-07-29T06:37:06;101239.00;;;13.60;67.27
59545;BME280;45368;55.002;-1.592;2022-07-29T06:39:35;101239.06;;;13.93;66.70
59545;BME280;45368;55.002;-1.592;2022-07-29T06:42:03;101242.12;;;13.73;68.00
59545;BME280;45368;55.002;-1.592;2022-07-29T06:44:31;101237.74;;;13.64;67.34
59545;BME280;45368;55.002;-1.592;2022-07-29T06:46:58;101242.58;;;14.20;65.97
59545;BME280;45368;55.002;-1.592;2022-07-29T06:49:26;101246.20;;;13.96;65.61
59545;BME280;45368;55.002;-1.592;2022-07-29T06:51:54;101240.24;;;14.49;64.55
59545;BME280;45368;55.002;-1.592;2022-07-29T06:54:21;101247.78;;;14.10;65.23
59545;BME280;45368;55.002;-1.592;2022-07-29T06:56:48;101249.24;;;14.21;65.36
59545;BME280;45368;55.002;-1.592;2022-07-29T06:59:16;101248.91;;;14.21;65.16
59545;BME280;45368;55.002;-1.592;2022-07-29T07:01:43;101248.52;;;14.04;65.13
59545;BME280;45368;55.002;-1.592;2022-07-29T07:04:11;101252.79;;;14.10;65.13
59545;BME280;45368;55.002;-1.592;2022-07-29T07:06:38;101252.70;;;14.43;64.24
59545;BME280;45368;55.002;-1.592;2022-07-29T07:09:06;101250.45;;;14.39;64.29
59545;BME280;45368;55.002;-1.592;2022-07-29T07:11:33;101252.20;;;13.83;65.41
59545;BME280;45368;55.002;-1.592;2022-07-29T07:14:01;101247.66;;;14.03;65.56
59545;BME280;45368;55.002;-1.592;2022-07-29T07:16:27;101248.59;;;13.80;66.80
59545;BME280;45368;55.002;-1.592;2022-07-29T07:18:54;101248.40;;;13.79;66.94
59545;BME280;45368;55.002;-1.592;2022-07-29T07:21:21;101247.22;;;14.51;64.98
59545;BME280;45368;55.002;-1.592;2022-07-29T07:23:49;101246.34;;;14.38;65.63
59545;BME280;45368;55.002;-1.592;2022-07-29T07:26:16;101249.18;;;13.75;66.24
59545;BME280;45368;55.002;-1.592;2022-07-29T07:28:42;101250.86;;;14.53;65.16
59545;BME280;45368;55.002;-1.592;2022-07-29T07:31:10;101249.70;;;14.12;65.61
59545;BME280;45368;55.002;-1.592;2022-07-29T07:33:38;101248.81;;;14.10;65.78
59545;BME280;45368;55.002;-1.592;2022-07-29T07:36:05;101244.35;;;14.54;64.40
59545;BME280;45368;55.002;-1.592;2022-07-29T07:38:32;101245.73;;;14.93;63.57
59545;BME280;45368;55.002;-1.592;2022-07-29T07:41:01;101245.84;;;14.68;65.35
59545;BME280;45368;55.002;-1.592;2022-07-29T07:43:28;101249.03;;;14.73;64.51
59545;BME280;45368;55.002;-1.592;2022-07-29T07:45:55;101245.76;;;14.81;64.41
59545;BME280;45368;55.002;-1.592;2022-07-29T07:48:23;101248.49;;;14.15;65.70
59545;BME280;45368;55.002;-1.592;2022-07-29T07:50:50;101252.93;;;14.47;65.28
59545;BME280;45368;55.002;-1.592;2022-07-29T07:53:17;101252.65;;;14.21;65.90
59545;BME280;45368;55.002;-1.592;2022-07-29T07:55:44;101256.87;;;14.22;65.46
59545;BME280;45368;55.002;-1.592;2022-07-29T07:58:11;101251.95;;;14.52;64.06
59545;BME280;45368;55.002;-1.592;2022-07-29T08:00:38;101250.98;;;14.84;63.63
59545;BME280;45368;55.002;-1.592;2022-07-29T08:03:06;101250.51;;;14.81;62.40
59545;BME280;45368;55.002;-1.592;2022-07-29T08:05:33;101253.49;;;14.84;62.02
59545;BME280;45368;55.002;-1.592;2022-07-29T08:08:00;101247.96;;;14.74;61.88
59545;BME280;45368;55.002;-1.592;2022-07-29T08:10:26;101247.78;;;14.96;61.30
59545;BME280;45368;55.002;-1.592;2022-07-29T08:12:53;101248.64;;;14.22;61.60
59545;BME280;45368;55.002;-1.592;2022-07-29T08:15:20;101249.81;;;14.06;62.64
59545;BME280;45368;55.002;-1.592;2022-07-29T08:17:48;101248.29;;;14.30;62.44
59545;BME280;45368;55.002;-1.592;2022-07-29T08:20:15;101243.74;;;13.84;63.31
59545;BME280;45368;55.002;-1.592;2022-07-29T08:22:41;101239.06;;;14.45;63.04
59545;BME280;45368;55.002;-1.592;2022-07-29T08:25:09;101234.43;;;14.41;62.68
59545;BME280;45368;55.002;-1.592;2022-07-29T08:27:36;101235.09;;;13.76;64.32
59545;BME280;45368;55.002;-1.592;2022-07-29T08:30:04;101229.99;;;14.14;64.33
59545;BME280;45368;55.002;-1.592;2022-07-29T08:32:32;101230.98;;;14.20;64.37
59545;BME280;45368;55.002;-1.592;2022-07-29T08:34:59;101231.53;;;14.18;64.06
59545;BME280;45368;55.002;-1.592;2022-07-29T08:37:26;101230.20;;;14.37;63.65
59545;BME280;45368;55.002;-1.592;2022-07-29T08:39:54;101231.80;;;14.47;63.24
59545;BME280;45368;55.002;-1.592;2022-07-29T08:42:21;101236.78;;;13.84;64.98
59545;BME280;45368;55.002;-1.592;2022-07-29T08:44:49;101233.92;;;14.26;64.89
59545;BME280;45368;55.002;-1.592;2022-07-29T08:47:17;101232.53;;;14.45;65.19
59545;BME280;45368;55.002;-1.592;2022-07-29T08:49:44;101233.95;;;13.81;66.23
59545;BME280;45368;55.002;-1.592;2022-07-29T08:52:11;101228.58;;;14.22;66.25
59545;BME280;45368;55.002;-1.592;2022-07-29T08:54:43;101230.68;;;13.85;66.98
59545;BME280;45368;55.002;-1.592;2022-07-29T08:57:13;101228.30;;;13.83;66.60
59545;BME280;45368;55.002;-1.592;2022-07-29T08:59:42;101233.50;;;13.85;67.48
59545;BME280;45368;55.002;-1.592;2022-07-29T09:02:15;101225.36;;;14.41;65.85
59545;BME280;45368;55.002;-1.592;2022-07-29T09:04:46;101234.45;;;13.98;67.48
59545;BME280;45368;55.002;-1.592;2022-07-29T09:07:15;101235.08;;;13.65;68.38
59545;BME280;45368;55.002;-1.592;2022-07-29T09:09:43;101231.32;;;14.19;67.37
59545;BME280;45368;55.002;-1.592;2022-07-29T09:12:11;101233.44;;;14.11;66.84
59545;BME280;45368;55.002;-1.592;2022-07-29T09:14:38;101234.58;;;14.16;67.59
59545;BME280;45368;55.002;-1.592;2022-07-29T09:17:06;101233.62;;;14.03;66.63
59545;BME280;45368;55.002;-1.592;2022-07-29T09:19:35;101239.28;;;13.77;68.03
59545;BME280;45368;55.002;-1.592;2022-07-29T09:22:05;101242.80;;;13.98;67.46
59545;BME280;45368;55.002;-1.592;2022-07-29T09:24:41;101241.87;;;13.77;67.43
59545;BME280;45368;55.002;-1.592;2022-07-29T09:27:18;101241.54;;;14.40;65.92
59545;BME280;45368;55.002;-1.592;2022-07-29T09:29:46;101237.31;;;13.83;66.87
59545;BME280;45368;55.002;-1.592;2022-07-29T09:32:13;101235.11;;;14.45;66.34
59545;BME280;45368;55.002;-1.592;2022-07-29T09:34:40;101227.14;;;14.67;65.73
59545;BME280;45368;55.002;-1.592;2022-07-29T09:37:07;101225.27;;;14.31;65.06
59545;BME280;45368;55.002;-1.592;2022-07-29T09:39:39;101225.88;;;14.32;65.47
59545;BME280;45368;55.002;-1.592;2022-07-29T09:42:07;101226.00;;;14.41;66.34
59545;BME280;45368;55.002;-1.592;2022-07-29T09:44:44;101224.97;;;14.32;64.68
59545;BME280;45368;55.002;-1.592;2022-07-29T09:47:11;101224.34;;;15.00;64.00
59545;BME280;45368;55.002;-1.592;2022-07-29T09:49:52;101225.02;;;15.40;63.22
59545;BME280;45368;55.002;-1.592;2022-07-29T09:52:19;101225.22;;;15.12;63.21
59545;BME280;45368;55.002;-1.592;2022-07-29T09:54:47;101219.36;;;15.64;61.58
59545;BME280;45368;55.002;-1.592;2022-07-29T09:57:24;101219.93;;;16.34;60.31
59545;BME280;45368;55.002;-1.592;2022-07-29T10:00:00;101224.22;;;16.16;58.70
59545;BME280;45368;55.002;-1.592;2022-07-29T10:02:29;101222.47;;;16.32;57.84
59545;BME280;45368;55.002;-1.592;2022-07-29T10:04:56;101226.62;;;16.13;59.18
59545;BME280;45368;55.002;-1.592;2022-07-29T10:07:25;101230.44;;;15.68;58.34
59545;BME280;45368;55.002;-1.592;2022-07-29T10:09:54;101230.47;;;15.75;58.31
59545;BME280;45368;55.002;-1.592;2022-07-29T10:12:23;101235.06;;;15.44;59.46
59545;BME280;45368;55.002;-1.592;2022-07-29T10:14:51;101233.07;;;15.83;57.64
59545;BME280;45368;55.002;-1.592;2022-07-29T10:17:19;101230.58;;;16.23;57.84
59545;BME280;45368;55.002;-1.592;2022-07-29T10:19:48;101231.44;;;15.98;57.69
59545;BME280;45368;55.002;-1.592;2022-07-29T10:22:14;101232.35;;;16.02;57.59
59545;BME280;45368;55.002;-1.592;2022-07-29T10:24:41;101234.02;;;15.20;59.45
59545;BME280;45368;55.002;-1.592;2022-07-29T10:27:08;101230.06;;;15.97;58.87
59545;BME280;45368;55.002;-1.592;2022-07-29T10:29:36;101229.03;;;15.16;59.88
59545;BME280;45368;55.002;-1.592;2022-07-29T10:32:21;101226.39;;;15.98;58.46
59545;BME280;45368;55.002;-1.592;2022-07-29T10:35:08;101231.06;;;14.88;60.32
59545;BME280;45368;55.002;-1.592;2022-07-29T10:37:56;101230.79;;;15.99;59.90
59545;BME280;45368;55.002;-1.592;2022-07-29T10:40:35;101229.73;;;15.37;60.22
59545;BME280;45368;55.002;-1.592;2022-07-29T10:43:14;101229.25;;;15.09;60.94
59545;BME280;45368;55.002;-1.592;2022-07-29T10:45:44;101226.71;;;15.39;60.92
59545;BME280;45368;55.002;-1.592;2022-07-29T10:48:12;101226.10;;;15.87;59.95
59545;BME280;45368;55.002;-1.592;2022-07-29T10:50:57;101229.92;;;16.20;60.10
59545;BME280;45368;55.002;-1.592;2022-07-29T10:53:25;101225.55;;;16.70;57.87
59545;BME280;45368;55.002;-1.592;2022-07-29T10:56:24;101231.82;;;15.67;57.29
59545;BME280;45368;55.002;-1.592;2022-07-29T10:59:24;101232.06;;;15.82;57.16
59545;BME280;45368;55.002;-1.592;2022-07-29T11:01:53;101237.21;;;15.92;57.50
59545;BME280;45368;55.002;-1.592;2022-07-29T11:05:03;101237.61;;;15.22;57.87
59545;BME280;45368;55.002;-1.592;2022-07-29T11:07:32;101235.40;;;15.45;56.96
59545;BME280;45368;55.002;-1.592;2022-07-29T11:10:32;101234.04;;;15.68;57.52
59545;BME280;45368;55.002;-1.592;2022-07-29T11:12:59;101236.89;;;15.35;58.23
59545;BME280;45368;55.002;-1.592;2022-07-29T11:15:27;101236.72;;;15.13;59.93
59545;BME280;45368;55.002;-1.592;2022-07-29T11:18:10;101231.82;;;15.20;60.16
59545;BME280;45368;55.002;-1.592;2022-07-29T11:20:39;101230.53;;;15.50;59.02
59545;BME280;45368;55.002;-1.592;2022-07-29T11:23:25;101231.27;;;15.32;59.23
59545;BME280;45368;55.002;-1.592;2022-07-29T11:26:25;101230.13;;;15.02;59.69
59545;BME280;45368;55.002;-1.592;2022-07-29T11:28:59;101228.95;;;15.46;59.89
59545;BME280;45368;55.002;-1.592;2022-07-29T11:31:38;101229.69;;;14.92;60.34
59545;BME280;45368;55.002;-1.592;2022-07-29T11:34:24;101224.70;;;15.54;59.31
59545;BME280;45368;55.002;-1.592;2022-07-29T11:37:24;101222.27;;;15.10;59.90
59545;BME280;45368;55.002;-1.592;2022-07-29T11:40:24;101225.26;;;15.65;58.96
59545;BME280;45368;55.002;-1.592;2022-07-29T11:42:51;101226.92;;;15.40;59.70
59545;BME280;45368;55.002;-1.592;2022-07-29T11:45:24;101227.40;;;16.07;58.17
59545;BME280;45368;55.002;-1.592;2022-07-29T11:47:53;101226.63;;;16.22;58.28
59545;BME280;45368;55.002;-1.592;2022-07-29T11:50:32;101227.85;;;15.91;58.60
59545;BME280;45368;55.002;-1.592;2022-07-29T11:53:00;101224.74;;;16.02;58.96
59545;BME280;45368;55.002;-1.592;2022-07-29T11:55:28;101226.10;;;15.80;59.34
59545;BME280;45368;55.002;-1.592;2022-07-29T11:57:57;101221.55;;;15.93;58.90
59545;BME280;45368;55.002;-1.592;2022-07-29T12:00:28;101216.88;;;17.04;56.35
59545;BME280;45368;55.002;-1.592;2022-07-29T12:02:57;101216.75;;;17.04;55.84
59545;BME280;45368;55.002;-1.592;2022-07-29T12:05:34;101209.09;;;17.71;55.02
59545;BME280;45368;55.002;-1.592;2022-07-29T12:08:07;101202.39;;;18.24;52.80
59545;BME280;45368;55.002;-1.592;2022-07-29T12:10:34;101202.50;;;18.56;52.01
59545;BME280;45368;55.002;-1.592;2022-07-29T12:13:02;101200.82;;;17.98;52.83
59545;BME280;45368;55.002;-1.592;2022-07-29T12:15:30;101197.73;;;18.38;52.02
59545;BME280;45368;55.002;-1.592;2022-07-29T12:17:57;101198.22;;;18.01;52.40
59545;BME280;45368;55.002;-1.592;2022-07-29T12:20:26;101194.77;;;18.12;51.90
59545;BME280;45368;55.002;-1.592;2022-07-29T12:22:54;101198.03;;;17.58;52.82
59545;BME280;45368;55.002;-1.592;2022-07-29T12:25:23;101191.28;;;18.15;52.08
59545;BME280;45368;55.002;-1.592;2022-07-29T12:27:59;101189.57;;;18.78;51.23
59545;BME280;45368;55.002;-1.592;2022-07-29T12:30:38;101185.07;;;18.40;50.91
59545;BME280;45368;55.002;-1.592;2022-07-29T12:33:16;101177.03;;;19.02;50.72
59545;BME280;45368;55.002;-1.592;2022-07-29T12:35:46;101172.71;;;18.37;50.41
59545;BME280;45368;55.002;-1.592;2022-07-29T12:38:14;101168.18;;;19.00;48.94
59545;BME280;45368;55.002;-1.592;2022-07-29T12:40:42;101164.70;;;18.77;50.67
59545;BME280;45368;55.002;-1.592;2022-07-29T12:43:12;101163.56;;;19.07;49.03
59545;BME280;45368;55.002;-1.592;2022-07-29T12:45:41;101164.97;;;19.18;48.81
59545;BME280;45368;55.002;-1.592;2022-07-29T12:48:09;101160.56;;;18.84;48.34
59545;BME280;45368;55.002;-1.592;2022-07-29T12:50:52;101163.15;;;18.62;49.48
59545;BME280;45368;55.002;-1.592;2022-07-29T12:53:19;101162.16;;;18.70;48.73
59545;BME280;45368;55.002;-1.592;2022-07-29T12:55:49;101158.40;;;19.16;48.08